createdAt,value
2019-02-27T00:00:30.038Z,7.78
2019-02-27T00:02:59.835Z,6.70
2019-02-27T00:05:29.542Z,8.15
2019-02-27T00:08:00.519Z,7.83
2019-02-27T00:10:31.294Z,8.30
2019-02-27T00:13:02.173Z,8.70
2019-02-27T00:15:37.748Z,8.55
2019-02-27T00:18:06.406Z,7.67
2019-02-27T00:20:37.042Z,7.53
2019-02-27T00:23:07.784Z,9.00
2019-02-27T00:25:37.622Z,7.00
2019-02-27T00:28:07.595Z,8.20
2019-02-27T00:30:38.661Z,7.53
2019-02-27T00:33:08.494Z,8.18
2019-02-27T00:35:39.594Z,8.00
2019-02-27T00:38:10.746Z,8.15
2019-02-27T00:40:40.587Z,9.30
2019-02-27T00:43:11.476Z,10.72
2019-02-27T00:45:41.311Z,8.83
2019-02-27T00:48:11.007Z,8.75
2019-02-27T00:50:40.966Z,8.80
2019-02-27T00:53:10.808Z,9.00
2019-02-27T00:55:40.522Z,8.80
2019-02-27T00:58:11.145Z,7.83
2019-02-27T01:00:40.840Z,7.28
2019-02-27T01:03:10.554Z,8.68
2019-02-27T01:05:41.216Z,5.97
2019-02-27T01:08:11.755Z,6.00
2019-02-27T01:10:42.832Z,4.75
2019-02-27T01:13:14.286Z,5.85
2019-02-27T01:15:44.946Z,5.95
2019-02-27T01:18:15.904Z,6.22
2019-02-27T01:20:46.647Z,5.60
2019-02-27T01:23:18.510Z,6.25
2019-02-27T01:25:49.558Z,5.85
2019-02-27T01:28:19.680Z,7.00
2019-02-27T01:30:50.486Z,5.65
2019-02-27T01:33:26.456Z,7.20
2019-02-27T01:35:56.755Z,7.58
2019-02-27T01:38:32.587Z,6.53
2019-02-27T01:41:03.234Z,6.75
2019-02-27T01:43:41.954Z,6.70
2019-02-27T01:46:11.642Z,5.58
2019-02-27T01:48:46.358Z,6.15
2019-02-27T01:51:16.067Z,5.95
2019-02-27T01:53:46.036Z,5.75
2019-02-27T01:56:22.928Z,5.87
2019-02-27T01:58:53.029Z,6.50
2019-02-27T02:01:22.854Z,5.62
2019-02-27T02:03:54.454Z,6.03
2019-02-27T02:06:32.438Z,6.35
2019-02-27T02:09:12.557Z,6.80
2019-02-27T02:11:42.238Z,6.85
2019-02-27T02:14:43.326Z,6.85
2019-02-27T02:17:26.586Z,7.33
2019-02-27T02:19:59.506Z,5.12
2019-02-27T02:22:38.924Z,6.10
2019-02-27T02:25:43.708Z,6.45
2019-02-27T02:28:24.399Z,6.17
2019-02-27T02:31:40.814Z,6.78
2019-02-27T02:34:24.054Z,7.12
2019-02-27T02:37:21.547Z,6.50
2019-02-27T02:40:30.842Z,6.42
2019-02-27T02:43:41.901Z,5.80
2019-02-27T02:46:49.488Z,4.08
2019-02-27T02:49:48.035Z,5.50
2019-02-27T02:52:27.675Z,7.12
2019-02-27T02:55:20.192Z,7.15
2019-02-27T02:57:59.748Z,7.10
2019-02-27T03:00:53.748Z,6.95
2019-02-27T03:04:12.552Z,7.95
2019-02-27T03:06:49.550Z,6.78
2019-02-27T03:09:51.091Z,6.10
2019-02-27T03:12:29.864Z,7.15
2019-02-27T03:15:28.438Z,6.40
2019-02-27T03:18:20.678Z,6.97
2019-02-27T03:21:28.565Z,6.25
2019-02-27T03:24:02.263Z,6.22
2019-02-27T03:27:02.144Z,5.90
2019-02-27T03:29:54.528Z,6.42
2019-02-27T03:32:27.444Z,5.80
2019-02-27T03:35:27.567Z,6.12
2019-02-27T03:38:16.003Z,5.70
2019-02-27T03:41:11.360Z,4.97
2019-02-27T03:43:58.691Z,4.90
2019-02-27T03:47:03.715Z,5.53
2019-02-27T03:49:59.133Z,4.72
2019-02-27T03:52:44.687Z,4.95
2019-02-27T03:55:52.615Z,6.22
2019-02-27T03:58:43.331Z,6.58
2019-02-27T04:01:18.978Z,6.28
2019-02-27T04:04:03.517Z,5.97
2019-02-27T04:06:46.909Z,5.25
2019-02-27T04:09:23.992Z,6.78
2019-02-27T04:11:53.830Z,6.80
2019-02-27T04:14:31.929Z,7.42
2019-02-27T04:17:06.205Z,6.67
2019-02-27T04:19:38.736Z,6.67
2019-02-27T04:22:12.532Z,4.67
2019-02-27T04:24:42.633Z,5.30
2019-02-27T04:27:12.482Z,5.72
2019-02-27T04:29:43.122Z,5.65
2019-02-27T04:32:13.313Z,6.10
2019-02-27T04:34:43.390Z,6.12
2019-02-27T04:37:13.234Z,4.90
2019-02-27T04:39:43.232Z,5.70
2019-02-27T04:42:14.355Z,5.72
2019-02-27T04:44:44.196Z,5.65
2019-02-27T04:47:14.155Z,6.25
2019-02-27T04:49:43.986Z,5.55
2019-02-27T04:52:13.709Z,6.17
2019-02-27T04:54:46.707Z,5.67
2019-02-27T04:57:16.547Z,6.00
2019-02-27T04:59:49.691Z,6.62
2019-02-27T05:02:18.898Z,6.20
2019-02-27T05:04:49.384Z,5.83
2019-02-27T05:07:26.437Z,5.67
2019-02-27T05:09:57.461Z,6.50
2019-02-27T05:12:27.682Z,5.97
2019-02-27T05:14:57.514Z,6.90
2019-02-27T05:17:27.222Z,6.10
2019-02-27T05:19:56.910Z,5.17
2019-02-27T05:22:28.521Z,5.78
2019-02-27T05:24:58.218Z,7.00
2019-02-27T05:27:33.230Z,6.70
2019-02-27T05:30:03.098Z,7.47
2019-02-27T05:32:33.074Z,6.62
2019-02-27T05:35:10.794Z,6.90
2019-02-27T05:37:40.750Z,7.08
2019-02-27T05:40:11.155Z,5.58
2019-02-27T05:42:41.124Z,6.60
2019-02-27T05:45:13.423Z,7.22
2019-02-27T05:47:45.655Z,6.35
2019-02-27T05:50:15.324Z,6.40
2019-02-27T05:52:48.901Z,5.95
2019-02-27T05:55:19.207Z,6.37
2019-02-27T05:57:58.387Z,6.65
2019-02-27T06:00:28.398Z,5.62
2019-02-27T06:03:05.192Z,6.70
2019-02-27T06:05:35.926Z,6.95
2019-02-27T06:08:06.410Z,7.33
2019-02-27T06:10:36.403Z,7.50
2019-02-27T06:13:08.416Z,7.00
2019-02-27T06:15:38.528Z,7.97
2019-02-27T06:18:08.370Z,7.33
2019-02-27T06:20:41.926Z,6.78
2019-02-27T06:23:16.246Z,7.03
2019-02-27T06:25:48.128Z,7.10
2019-02-27T06:28:18.747Z,6.85
2019-02-27T06:30:49.155Z,7.40
2019-02-27T06:33:19.138Z,6.87
2019-02-27T06:35:49.493Z,6.95
2019-02-27T06:38:19.269Z,7.12
2019-02-27T06:40:48.962Z,7.60
2019-02-27T06:43:18.670Z,7.58
2019-02-27T06:45:54.496Z,6.03
2019-02-27T06:48:24.615Z,8.23
2019-02-27T06:50:54.450Z,7.53
2019-02-27T06:53:25.030Z,7.15
2019-02-27T06:55:55.003Z,6.35
2019-02-27T06:58:25.135Z,6.22
2019-02-27T07:00:56.173Z,6.60
2019-02-27T07:03:29.237Z,6.65
2019-02-27T07:05:57.383Z,7.62
2019-02-27T07:08:29.039Z,5.50
2019-02-27T07:11:09.899Z,5.58
2019-02-27T07:13:30.123Z,6.50
2019-02-27T07:16:00.788Z,6.75
2019-02-27T07:18:31.716Z,6.00
2019-02-27T07:21:01.616Z,5.95
2019-02-27T07:23:31.327Z,5.15
2019-02-27T07:26:01.021Z,6.40
2019-02-27T07:28:30.702Z,5.92
2019-02-27T07:31:01.738Z,6.50
2019-02-27T07:33:31.571Z,5.67
2019-02-27T07:36:03.647Z,6.92
2019-02-27T07:38:32.930Z,6.50
2019-02-27T07:41:02.762Z,5.85
2019-02-27T07:43:32.850Z,6.75
2019-02-27T07:46:03.546Z,6.20
2019-02-27T07:48:33.504Z,5.97
2019-02-27T07:51:03.342Z,6.90
2019-02-27T07:53:33.046Z,6.83
2019-02-27T07:56:02.770Z,6.30
2019-02-27T07:58:34.550Z,6.55
2019-02-27T08:01:05.485Z,6.20
2019-02-27T08:03:35.472Z,6.60
2019-02-27T08:06:07.462Z,8.10
2019-02-27T08:08:37.551Z,6.63
2019-02-27T08:11:14.647Z,7.20
2019-02-27T08:13:49.543Z,7.50
2019-02-27T08:16:19.634Z,7.17
2019-02-27T08:18:50.390Z,7.30
2019-02-27T08:21:20.340Z,9.20
2019-02-27T08:23:50.166Z,7.20
2019-02-27T08:26:19.875Z,7.17
2019-02-27T08:28:50.758Z,7.97
2019-02-27T08:31:21.802Z,7.40
2019-02-27T08:33:51.898Z,7.60
2019-02-27T08:36:21.754Z,7.50
2019-02-27T08:38:52.678Z,7.83
2019-02-27T08:41:22.848Z,7.37
2019-02-27T08:43:54.196Z,7.70
2019-02-27T08:46:24.058Z,7.70
2019-02-27T08:48:54.070Z,8.67
2019-02-27T08:51:25.103Z,7.40
2019-02-27T08:53:58.963Z,8.00
2019-02-27T08:56:27.035Z,8.30
2019-02-27T08:58:56.881Z,8.47
2019-02-27T09:01:26.849Z,8.17
2019-02-27T09:03:56.694Z,8.67
2019-02-27T09:06:27.506Z,8.00
2019-02-27T09:08:58.387Z,7.83
2019-02-27T09:11:28.218Z,8.60
2019-02-27T09:13:58.188Z,8.23
2019-02-27T09:16:28.288Z,8.07
2019-02-27T09:18:59.314Z,7.83
2019-02-27T09:21:29.429Z,8.70
2019-02-27T09:23:59.550Z,8.00
2019-02-27T09:26:29.652Z,7.30
2019-02-27T09:28:59.757Z,7.97
2019-02-27T09:31:29.860Z,8.73
2019-02-27T09:33:59.982Z,8.43
2019-02-27T09:36:30.102Z,9.30
2019-02-27T09:39:01.090Z,9.33
2019-02-27T09:41:33.184Z,9.60
2019-02-27T09:44:03.750Z,9.20
2019-02-27T09:46:34.788Z,8.17
2019-02-27T09:49:06.855Z,8.77
2019-02-27T09:51:36.330Z,8.73
2019-02-27T09:54:08.176Z,9.37
2019-02-27T09:56:38.027Z,7.03
2019-02-27T09:59:08.017Z,7.77
2019-02-27T10:01:38.141Z,9.50
2019-02-27T10:04:09.733Z,8.80
2019-02-27T10:06:42.740Z,7.17
2019-02-27T10:09:18.326Z,5.77
2019-02-27T10:11:48.288Z,7.33
2019-02-27T10:14:18.388Z,8.43
2019-02-27T10:16:57.402Z,7.13
2019-02-27T10:19:33.378Z,7.70
2019-02-27T10:22:03.499Z,7.03
2019-02-27T10:24:45.246Z,7.23
2019-02-27T10:27:25.466Z,7.03
2019-02-27T10:29:55.994Z,7.37
2019-02-27T10:32:28.291Z,6.73
2019-02-27T10:35:00.402Z,6.33
2019-02-27T10:37:30.322Z,6.87
2019-02-27T10:40:00.057Z,6.90
2019-02-27T10:42:32.859Z,6.80
2019-02-27T10:45:02.821Z,6.73
2019-02-27T10:47:36.261Z,6.50
2019-02-27T10:50:09.364Z,6.50
2019-02-27T10:52:40.462Z,6.47
2019-02-27T10:55:15.316Z,6.43
2019-02-27T10:57:47.246Z,6.13
2019-02-27T11:00:33.638Z,6.50
2019-02-27T11:03:04.711Z,5.80
2019-02-27T11:05:43.750Z,5.50
2019-02-27T11:08:13.738Z,5.80
2019-02-27T11:10:43.833Z,5.43
2019-02-27T11:13:14.547Z,5.80
2019-02-27T11:15:45.436Z,6.23
2019-02-27T11:18:21.110Z,5.23
2019-02-27T11:20:52.014Z,6.00
2019-02-27T11:23:28.374Z,5.73
2019-02-27T11:25:58.518Z,5.60
2019-02-27T11:28:30.568Z,5.77
2019-02-27T11:31:00.409Z,5.87
2019-02-27T11:33:33.425Z,4.30
2019-02-27T11:36:03.202Z,4.80
2019-02-27T11:38:39.082Z,5.10
2019-02-27T11:41:08.767Z,3.90
2019-02-27T11:43:40.799Z,3.50
2019-02-27T11:46:10.749Z,3.40
2019-02-27T11:48:40.722Z,2.53
2019-02-27T11:51:11.026Z,2.90
2019-02-27T11:53:40.854Z,2.47
2019-02-27T11:56:11.787Z,2.23
2019-02-27T11:58:43.842Z,2.67
2019-02-27T12:01:13.742Z,3.27
2019-02-27T12:03:45.917Z,3.40
2019-02-27T12:06:15.114Z,4.53
2019-02-27T12:08:45.210Z,3.17
2019-02-27T12:11:15.331Z,3.87
2019-02-27T12:13:47.450Z,3.50
2019-02-27T12:16:23.612Z,3.77
2019-02-27T12:18:53.754Z,3.97
2019-02-27T12:21:25.483Z,3.93
2019-02-27T12:24:02.294Z,4.03
2019-02-27T12:26:34.456Z,4.03
2019-02-27T12:29:14.498Z,3.97
2019-02-27T12:31:47.919Z,4.00
2019-02-27T12:34:16.878Z,3.00
2019-02-27T12:36:46.978Z,4.30
2019-02-27T12:39:18.646Z,5.70
2019-02-27T12:41:49.798Z,4.00
2019-02-27T12:44:19.634Z,4.73
2019-02-27T12:46:49.586Z,4.40
2019-02-27T12:49:21.315Z,4.50
2019-02-27T12:51:51.270Z,4.80
2019-02-27T12:54:21.390Z,4.27
2019-02-27T12:56:51.490Z,3.80
2019-02-27T12:59:21.322Z,3.77
2019-02-27T13:01:51.826Z,4.93
2019-02-27T13:04:29.807Z,4.17
2019-02-27T13:06:59.518Z,3.97
2019-02-27T13:09:29.274Z,3.77
2019-02-27T13:11:58.968Z,4.73
2019-02-27T13:14:33.055Z,4.57
2019-02-27T13:17:06.526Z,3.50
2019-02-27T13:19:38.449Z,3.40
2019-02-27T13:22:08.758Z,3.87
2019-02-27T13:24:39.995Z,4.30
2019-02-27T13:27:12.674Z,4.40
2019-02-27T13:29:42.374Z,4.10
2019-02-27T13:32:12.054Z,3.80
2019-02-27T13:34:45.346Z,4.03
2019-02-27T13:37:14.078Z,4.47
2019-02-27T13:39:46.652Z,3.57
2019-02-27T13:42:18.654Z,3.73
2019-02-27T13:44:48.282Z,4.30
2019-02-27T13:47:17.994Z,3.77
2019-02-27T13:49:48.141Z,3.50
2019-02-27T13:52:20.103Z,3.97
2019-02-27T13:54:49.779Z,3.90
2019-02-27T13:57:24.989Z,4.20
2019-02-27T13:59:57.922Z,4.10
2019-02-27T14:02:29.816Z,4.60
2019-02-27T14:05:00.799Z,4.00
2019-02-27T14:07:30.982Z,3.50
2019-02-27T14:10:01.087Z,3.23
2019-02-27T14:12:33.150Z,3.60
2019-02-27T14:15:02.571Z,3.53
2019-02-27T14:17:34.622Z,3.63
2019-02-27T14:20:06.811Z,3.23
2019-02-27T14:22:40.368Z,3.40
2019-02-27T14:25:15.146Z,3.33
2019-02-27T14:27:48.077Z,3.70
2019-02-27T14:30:25.841Z,3.40
2019-02-27T14:32:55.554Z,3.63
2019-02-27T14:35:25.586Z,2.40
2019-02-27T14:37:58.706Z,2.70
2019-02-27T14:40:29.523Z,3.07
2019-02-27T14:42:59.214Z,2.70
2019-02-27T14:45:28.922Z,2.97
2019-02-27T14:47:59.647Z,2.80
2019-02-27T14:50:33.514Z,3.50
2019-02-27T14:53:04.146Z,3.10
2019-02-27T14:55:35.946Z,3.53
2019-02-27T14:58:10.109Z,3.33
2019-02-27T15:00:42.002Z,3.20
2019-02-27T15:03:11.686Z,4.07
2019-02-27T15:05:44.954Z,3.67
2019-02-27T15:08:13.574Z,3.67
2019-02-27T15:10:43.667Z,3.57
2019-02-27T15:13:16.434Z,3.57
2019-02-27T15:15:52.059Z,2.90
2019-02-27T15:18:23.070Z,3.20
2019-02-27T15:20:56.102Z,3.10
2019-02-27T15:23:28.223Z,4.10
2019-02-27T15:26:00.039Z,4.20
2019-02-27T15:28:34.718Z,3.80
2019-02-27T15:31:05.652Z,4.23
2019-02-27T15:33:35.876Z,4.00
2019-02-27T15:36:07.210Z,4.43
2019-02-27T15:38:37.338Z,4.57
2019-02-27T15:41:07.506Z,4.93
2019-02-27T15:43:37.651Z,4.60
2019-02-27T15:46:21.731Z,4.30
2019-02-27T15:48:50.727Z,5.30
2019-02-27T15:51:22.766Z,4.70
2019-02-27T15:53:54.586Z,5.10
2019-02-27T15:56:24.342Z,5.57
2019-02-27T15:58:55.250Z,5.00
2019-02-27T16:01:28.121Z,5.10
2019-02-27T16:03:57.179Z,4.30
2019-02-27T16:06:37.103Z,5.10
2019-02-27T16:09:15.462Z,4.93
2019-02-27T16:11:48.091Z,5.17
2019-02-27T16:14:30.074Z,4.70
2019-02-27T16:17:01.222Z,5.80
2019-02-27T16:19:37.982Z,5.37
2019-02-27T16:22:09.036Z,4.60
2019-02-27T16:24:40.356Z,3.93
2019-02-27T16:27:11.854Z,4.97
2019-02-27T16:29:48.452Z,4.67
2019-02-27T16:32:19.122Z,5.30
2019-02-27T16:34:50.387Z,5.53
2019-02-27T16:37:22.806Z,4.80
2019-02-27T16:39:51.840Z,5.23
2019-02-27T16:42:21.911Z,5.23
2019-02-27T16:44:54.380Z,4.63
2019-02-27T16:47:23.716Z,4.50
2019-02-27T16:49:54.519Z,4.60
2019-02-27T16:52:26.151Z,4.70
2019-02-27T16:55:00.752Z,5.13
2019-02-27T16:57:27.789Z,4.53
2019-02-27T16:59:57.864Z,4.50
2019-02-27T17:02:27.834Z,4.60
2019-02-27T17:04:57.696Z,5.10
2019-02-27T17:07:27.648Z,4.80
2019-02-27T17:09:57.479Z,4.57
2019-02-27T17:12:29.910Z,5.90
2019-02-27T17:15:06.457Z,4.70
2019-02-27T17:17:38.275Z,5.70
2019-02-27T17:20:17.050Z,5.20
2019-02-27T17:22:52.855Z,4.80
2019-02-27T17:25:30.180Z,4.63
2019-02-27T17:28:01.043Z,4.50
2019-02-27T17:30:37.781Z,4.90
2019-02-27T17:33:06.963Z,4.13
2019-02-27T17:35:38.887Z,5.20
2019-02-27T17:38:10.827Z,5.27
2019-02-27T17:40:42.051Z,5.63
2019-02-27T17:43:11.739Z,5.10
2019-02-27T17:45:44.336Z,4.60
2019-02-27T17:48:15.155Z,4.87
2019-02-27T17:50:46.082Z,4.10
2019-02-27T17:53:16.176Z,6.83
2019-02-27T17:55:48.008Z,7.00
2019-02-27T17:58:17.980Z,9.03
2019-02-27T18:00:51.130Z,7.73
2019-02-27T18:03:21.151Z,5.93
2019-02-27T18:05:52.770Z,5.37
2019-02-27T18:08:23.648Z,4.83
2019-02-27T18:10:54.819Z,6.07
2019-02-27T18:13:24.699Z,5.03
2019-02-27T18:15:54.719Z,7.37
2019-02-27T18:18:25.880Z,6.63
2019-02-27T18:20:59.499Z,8.10
2019-02-27T18:23:29.455Z,6.20
2019-02-27T18:26:00.532Z,6.47
2019-02-27T18:28:32.671Z,6.00
2019-02-27T18:31:02.112Z,5.43
2019-02-27T18:33:33.131Z,4.83
2019-02-27T18:36:09.097Z,4.03
2019-02-27T18:38:39.205Z,3.37
2019-02-27T18:41:11.256Z,4.23
2019-02-27T18:43:41.171Z,8.77
2019-02-27T18:46:15.209Z,9.50
2019-02-27T18:48:46.251Z,6.23
2019-02-27T18:51:18.291Z,6.00
2019-02-27T18:53:48.670Z,4.97
2019-02-27T18:56:18.407Z,5.00
2019-02-27T18:58:48.372Z,6.20
2019-02-27T19:01:19.309Z,5.33
2019-02-27T19:03:51.347Z,6.33
2019-02-27T19:06:22.384Z,5.10
2019-02-27T19:08:53.503Z,6.13
2019-02-27T19:11:23.436Z,6.27
2019-02-27T19:13:53.595Z,5.83
2019-02-27T19:16:23.531Z,6.20
2019-02-27T19:18:53.219Z,5.43
2019-02-27T19:21:24.156Z,4.90
2019-02-27T19:23:55.233Z,7.30
2019-02-27T19:26:26.320Z,7.00
2019-02-27T19:28:59.310Z,6.37
2019-02-27T19:31:29.463Z,7.03
2019-02-27T19:33:59.519Z,6.20
2019-02-27T19:36:30.698Z,6.80
2019-02-27T19:39:01.575Z,7.90
2019-02-27T19:41:31.634Z,7.40
2019-02-27T19:44:01.747Z,8.00
2019-02-27T19:46:31.595Z,6.40
2019-02-27T19:49:03.548Z,7.07
2019-02-27T19:51:34.138Z,7.37
2019-02-27T19:54:03.951Z,7.53
2019-02-27T19:56:35.532Z,6.57
2019-02-27T19:59:09.601Z,6.87
2019-02-27T20:01:40.463Z,7.97
2019-02-27T20:04:12.841Z,7.10
2019-02-27T20:06:42.611Z,8.60
2019-02-27T20:09:18.991Z,8.20
2019-02-27T20:11:50.875Z,8.37
2019-02-27T20:14:20.638Z,8.13
2019-02-27T20:16:54.974Z,8.28
2019-02-27T20:19:27.904Z,10.10
2019-02-27T20:21:53.839Z,8.53
2019-02-27T20:24:23.691Z,10.53
2019-02-27T20:26:55.611Z,9.58
2019-02-27T20:29:25.713Z,10.40
2019-02-27T20:31:56.467Z,8.83
2019-02-27T20:34:26.427Z,11.57
2019-02-27T20:36:57.179Z,10.55
2019-02-27T20:39:27.024Z,10.23
2019-02-27T20:41:56.798Z,10.45
2019-02-27T20:44:26.770Z,11.35
2019-02-27T20:46:57.638Z,9.70
2019-02-27T20:49:31.790Z,9.30
2019-02-27T20:52:01.896Z,9.35
2019-02-27T20:54:32.683Z,9.20
2019-02-27T20:57:02.395Z,8.83
2019-02-27T20:59:34.083Z,9.70
2019-02-27T21:02:04.155Z,7.87
2019-02-27T21:04:35.250Z,7.27
2019-02-27T21:07:05.996Z,8.40
2019-02-27T21:09:36.099Z,7.00
2019-02-27T21:12:07.292Z,7.07
2019-02-27T21:14:42.696Z,7.27
2019-02-27T21:17:16.533Z,6.97
2019-02-27T21:19:47.075Z,7.70
2019-02-27T21:22:16.795Z,7.87
2019-02-27T21:24:47.535Z,8.55
2019-02-27T21:27:17.499Z,8.65
2019-02-27T21:29:47.487Z,8.80
2019-02-27T21:32:17.203Z,8.60
2019-02-27T21:34:49.415Z,7.47
2019-02-27T21:37:21.566Z,7.35
2019-02-27T21:39:53.288Z,7.67
2019-02-27T21:42:27.559Z,7.75
2019-02-27T21:45:00.039Z,7.03
2019-02-27T21:47:28.659Z,7.55
2019-02-27T21:50:03.659Z,9.35
2019-02-27T21:52:33.308Z,8.50
2019-02-27T21:55:03.179Z,8.33
2019-02-27T21:57:32.879Z,7.95
2019-02-27T22:00:03.112Z,8.38
2019-02-27T22:02:33.232Z,7.45
2019-02-27T22:05:07.023Z,7.67
2019-02-27T22:07:36.987Z,7.95
2019-02-27T22:10:13.105Z,8.10
2019-02-27T22:12:43.924Z,7.97
2019-02-27T22:15:29.012Z,6.80
2019-02-27T22:18:00.667Z,6.47
2019-02-27T22:20:32.315Z,6.75
2019-02-27T22:23:02.331Z,6.03
2019-02-27T22:25:35.580Z,7.40
2019-02-27T22:28:05.694Z,6.60
2019-02-27T22:30:36.482Z,6.45
2019-02-27T22:33:08.074Z,6.10
2019-02-27T22:35:40.082Z,6.40
2019-02-27T22:38:09.931Z,5.20
2019-02-27T22:40:39.964Z,6.28
2019-02-27T22:43:10.075Z,5.58
2019-02-27T22:45:43.175Z,6.17
2019-02-27T22:48:11.339Z,6.37
2019-02-27T22:50:41.918Z,5.42
2019-02-27T22:53:19.857Z,6.42
2019-02-27T22:55:49.643Z,4.95
2019-02-27T22:58:19.916Z,7.78
2019-02-27T23:01:01.223Z,5.97
2019-02-27T23:03:44.779Z,6.42
2019-02-27T23:06:15.938Z,5.85
2019-02-27T23:08:46.424Z,5.37
2019-02-27T23:11:16.740Z,5.58
2019-02-27T23:13:48.416Z,5.92
2019-02-27T23:16:20.898Z,5.15
2019-02-27T23:18:51.901Z,5.50
2019-02-27T23:21:26.637Z,5.90
2019-02-27T23:23:55.123Z,5.72
2019-02-27T23:26:29.655Z,4.62
2019-02-27T23:28:59.541Z,5.50
2019-02-27T23:31:29.574Z,5.83
2019-02-27T23:33:59.502Z,5.60
2019-02-27T23:36:30.393Z,6.28
2019-02-27T23:39:00.221Z,4.95
2019-02-27T23:41:29.935Z,5.83
2019-02-27T23:44:00.755Z,6.20
2019-02-27T23:46:31.451Z,5.67
2019-02-27T23:49:02.320Z,5.05
2019-02-27T23:51:32.423Z,4.62
2019-02-27T23:54:05.249Z,5.33
2019-02-27T23:56:34.947Z,5.95
2019-02-27T23:59:05.623Z,5.80
